createdAt,value
2022-11-15T00:01:18.088Z,105.30
2022-11-15T00:06:20.883Z,88.30
2022-11-15T00:11:23.632Z,88.60
2022-11-15T00:16:26.798Z,111.80
2022-11-15T00:21:29.516Z,103.70
2022-11-15T00:26:32.222Z,91.30
2022-11-15T00:31:35.058Z,87.70
2022-11-15T00:36:37.792Z,101.30
2022-11-15T00:41:40.529Z,80.70
2022-11-15T00:46:43.270Z,78.90
2022-11-15T00:51:45.991Z,86.80
2022-11-15T00:56:48.725Z,86.70
2022-11-15T01:01:51.429Z,79.20
2022-11-15T01:06:54.556Z,71.00
2022-11-15T01:11:57.297Z,86.00
2022-11-15T01:17:00.023Z,82.10
2022-11-15T01:22:02.761Z,80.90
2022-11-15T01:27:05.935Z,80.10
2022-11-15T01:32:08.692Z,84.60
2022-11-15T01:37:11.513Z,91.30
2022-11-15T01:42:14.670Z,84.30
2022-11-15T01:52:27.643Z,87.60
2022-11-15T01:57:30.992Z,98.10
2022-11-15T02:02:34.884Z,82.60
2022-11-15T02:07:37.860Z,86.90
2022-11-15T02:12:41.493Z,88.60
2022-11-15T02:17:59.437Z,101.00
2022-11-15T02:23:02.103Z,92.50
2022-11-15T02:28:34.758Z,93.00
2022-11-15T02:34:06.553Z,102.90
2022-11-15T02:39:32.505Z,104.10
2022-11-15T02:44:39.436Z,99.50
2022-11-15T02:49:47.466Z,105.80
2022-11-15T02:54:56.529Z,99.00
2022-11-15T03:00:18.798Z,96.80
2022-11-15T03:05:57.240Z,95.70
2022-11-15T03:11:17.265Z,89.90
2022-11-15T03:16:26.226Z,109.70
2022-11-15T03:21:30.949Z,87.90
2022-11-15T03:26:36.500Z,102.90
2022-11-15T03:31:50.332Z,123.20
2022-11-15T03:36:54.279Z,123.70
2022-11-15T03:42:25.254Z,118.10
2022-11-15T03:47:38.186Z,102.50
2022-11-15T03:52:42.175Z,116.50
2022-11-15T03:57:45.441Z,96.50
2022-11-15T04:07:50.837Z,107.20
2022-11-15T04:12:53.947Z,112.00
2022-11-15T04:17:58.384Z,115.80
2022-11-15T04:23:21.227Z,108.80
2022-11-15T04:28:23.947Z,109.40
2022-11-15T04:33:26.848Z,100.90
2022-11-15T04:38:29.533Z,97.40
2022-11-15T04:43:32.582Z,105.20
2022-11-15T04:48:35.647Z,119.80
2022-11-15T04:53:38.391Z,134.30
2022-11-15T04:58:41.198Z,113.90
2022-11-15T05:04:03.664Z,113.70
2022-11-15T05:09:06.442Z,92.70
2022-11-15T05:14:09.342Z,50.80
2022-11-15T05:19:12.111Z,78.00
2022-11-15T05:24:14.838Z,79.90
2022-11-15T05:29:17.962Z,77.70
2022-11-15T05:34:22.714Z,65.80
2022-11-15T05:39:27.025Z,65.50
2022-11-15T05:44:29.850Z,62.00
2022-11-15T05:49:37.619Z,73.00
2022-11-15T05:54:40.845Z,71.60
2022-11-15T06:04:47.933Z,75.60
2022-11-15T06:09:50.669Z,65.70
2022-11-15T06:14:53.377Z,59.90
2022-11-15T06:19:56.111Z,60.60
2022-11-15T06:25:04.049Z,66.90
2022-11-15T06:30:08.585Z,62.60
2022-11-15T06:40:13.991Z,51.70
2022-11-15T06:45:16.858Z,77.10
2022-11-15T06:50:20.403Z,69.40
2022-11-15T06:55:23.257Z,53.80
2022-11-15T07:00:26.232Z,60.90
2022-11-15T07:05:31.743Z,64.10
2022-11-15T07:10:34.613Z,61.90
2022-11-15T07:15:37.685Z,41.10
2022-11-15T07:20:53.852Z,59.80
2022-11-15T07:26:19.644Z,45.00
2022-11-15T07:31:24.740Z,62.30
2022-11-15T07:36:32.565Z,45.10
2022-11-15T07:41:36.103Z,55.60
2022-11-15T07:46:42.331Z,64.20
2022-11-15T07:51:49.646Z,59.70
2022-11-15T07:57:17.160Z,61.70
2022-11-15T08:02:31.728Z,70.80
2022-11-15T08:07:44.805Z,64.40
2022-11-15T08:13:11.949Z,61.00
2022-11-15T08:18:17.747Z,58.70
2022-11-15T08:28:47.676Z,58.50
2022-11-15T08:34:13.708Z,60.90
2022-11-15T08:50:00.676Z,54.50
2022-11-15T09:00:58.072Z,61.50
2022-11-15T09:06:07.640Z,60.90
2022-11-15T09:11:29.377Z,71.20
2022-11-15T09:16:51.045Z,56.40
2022-11-15T09:22:29.006Z,60.70
2022-11-15T09:27:44.352Z,59.90
2022-11-15T09:33:00.812Z,79.80
2022-11-15T09:38:18.023Z,82.80
2022-11-15T09:43:35.419Z,64.70
2022-11-15T09:48:55.506Z,70.00
2022-11-15T09:59:56.811Z,76.80
2022-11-15T10:05:05.870Z,67.40
2022-11-15T10:10:32.226Z,61.60
2022-11-15T10:15:54.709Z,110.20
2022-11-15T10:27:36.554Z,73.70
2022-11-15T10:32:41.696Z,66.60
2022-11-15T10:37:44.553Z,75.10
2022-11-15T10:42:48.297Z,55.70
2022-11-15T10:47:51.095Z,67.20
2022-11-15T10:52:54.678Z,83.50
2022-11-15T10:58:06.781Z,62.80
2022-11-15T11:03:38.624Z,67.30
2022-11-15T11:08:54.375Z,67.20
2022-11-15T11:14:13.365Z,65.00
2022-11-15T11:19:36.477Z,71.00
2022-11-15T11:24:57.873Z,71.50
2022-11-15T11:30:53.017Z,52.80
2022-11-15T11:36:24.796Z,61.10
2022-11-15T11:41:54.337Z,62.70
2022-11-15T11:47:08.723Z,49.10
2022-11-15T11:52:20.827Z,55.60
2022-11-15T11:57:34.033Z,55.00
2022-11-15T12:02:42.692Z,74.00
2022-11-15T12:07:47.836Z,55.50
2022-11-15T12:12:51.681Z,56.60
2022-11-15T12:18:01.568Z,58.40
2022-11-15T12:23:29.886Z,56.90
2022-11-15T12:29:06.395Z,39.10
2022-11-15T12:34:43.541Z,38.40
2022-11-15T12:40:04.816Z,34.00
2022-11-15T12:45:29.046Z,36.40
2022-11-15T12:50:54.691Z,35.60
2022-11-15T12:56:12.630Z,47.20
2022-11-15T13:01:34.306Z,45.50
2022-11-15T13:06:44.964Z,44.20
2022-11-15T13:11:51.062Z,68.10
2022-11-15T13:17:00.745Z,35.90
2022-11-15T13:22:28.392Z,36.90
2022-11-15T13:27:32.289Z,51.80
2022-11-15T13:32:35.250Z,35.90
2022-11-15T13:37:38.107Z,41.20
2022-11-15T13:42:45.638Z,48.70
2022-11-15T13:47:57.358Z,41.10
2022-11-15T13:53:03.827Z,44.50
2022-11-15T13:58:07.390Z,43.80
2022-11-15T14:03:26.794Z,46.00
2022-11-15T14:08:29.558Z,66.80
2022-11-15T14:13:32.974Z,36.30
2022-11-15T14:18:59.964Z,105.20
2022-11-15T14:24:21.700Z,83.90
2022-11-15T14:29:25.710Z,42.60
2022-11-15T14:34:28.457Z,39.80
2022-11-15T14:39:38.457Z,41.60
2022-11-15T14:44:44.856Z,45.40
2022-11-15T14:49:48.641Z,57.40
2022-11-15T14:54:51.373Z,55.10
2022-11-15T14:59:54.341Z,38.70
2022-11-15T15:04:59.076Z,40.80
2022-11-15T15:10:37.916Z,50.40
2022-11-15T15:15:33.459Z,62.00
2022-11-15T15:20:39.276Z,47.40
2022-11-15T15:25:43.054Z,49.90
2022-11-15T15:30:45.749Z,48.10
2022-11-15T15:35:48.567Z,54.70
2022-11-15T15:40:51.787Z,41.80
2022-11-15T15:45:54.765Z,44.60
2022-11-15T15:50:57.490Z,47.00
2022-11-15T15:56:00.236Z,60.20
2022-11-15T16:01:03.655Z,52.80
2022-11-15T16:06:40.401Z,60.60
2022-11-15T16:11:45.630Z,54.00
2022-11-15T16:16:48.380Z,58.00
2022-11-15T16:21:53.084Z,60.60
2022-11-15T16:26:55.922Z,60.60
2022-11-15T16:31:58.706Z,118.80
2022-11-15T16:37:01.609Z,83.50
2022-11-15T16:42:04.481Z,60.80
2022-11-15T16:47:17.634Z,62.20
2022-11-15T16:52:21.479Z,65.10
2022-11-15T16:57:24.564Z,59.10
2022-11-15T17:02:27.290Z,71.80
2022-11-15T17:07:30.157Z,92.50
2022-11-15T17:12:34.641Z,101.70
2022-11-15T17:17:37.374Z,71.40
2022-11-15T17:22:40.109Z,59.50
2022-11-15T17:27:43.184Z,84.50
2022-11-15T17:32:47.930Z,70.50
2022-11-15T17:37:50.806Z,66.00
2022-11-15T17:42:53.495Z,69.50
2022-11-15T17:47:56.257Z,70.40
2022-11-15T17:52:59.958Z,75.70
2022-11-15T17:58:02.679Z,78.90
2022-11-15T18:03:05.384Z,82.80
2022-11-15T18:08:12.735Z,82.90
2022-11-15T18:13:18.055Z,90.20
2022-11-15T18:18:20.752Z,79.60
2022-11-15T18:23:23.431Z,82.10
2022-11-15T18:28:34.793Z,69.90
2022-11-15T18:33:38.570Z,90.30
2022-11-15T18:38:41.893Z,87.90
2022-11-15T18:43:45.153Z,76.70
2022-11-15T18:53:55.371Z,110.50
2022-11-15T18:59:00.493Z,97.10
2022-11-15T19:04:10.353Z,77.20
2022-11-15T19:09:16.125Z,96.20
2022-11-15T19:14:20.199Z,94.70
2022-11-15T19:19:26.001Z,79.60
2022-11-15T19:24:29.990Z,75.50
2022-11-15T19:29:32.740Z,78.60
2022-11-15T19:34:35.495Z,70.10
2022-11-15T19:39:41.079Z,85.40
2022-11-15T19:44:44.274Z,85.50
2022-11-15T19:49:47.019Z,79.30
2022-11-15T19:54:50.247Z,81.00
2022-11-15T20:04:55.702Z,87.40
2022-11-15T20:09:58.986Z,69.40
2022-11-15T20:15:01.786Z,72.90
2022-11-15T20:20:04.947Z,66.70
2022-11-15T20:25:08.000Z,89.90
2022-11-15T20:30:11.055Z,79.40
2022-11-15T20:35:13.962Z,82.50
2022-11-15T20:40:17.026Z,66.70
2022-11-15T20:45:20.067Z,71.00
2022-11-15T20:50:43.527Z,59.50
2022-11-15T20:55:49.564Z,56.90
2022-11-15T21:00:55.796Z,61.20
2022-11-15T21:05:58.861Z,58.20
2022-11-15T21:11:20.202Z,62.20
2022-11-15T21:16:23.419Z,67.70
2022-11-15T21:26:28.852Z,102.80
2022-11-15T21:31:32.153Z,78.50
2022-11-15T21:41:37.720Z,57.20
2022-11-15T21:46:40.493Z,63.10
2022-11-15T21:51:43.600Z,65.90
2022-11-15T21:56:46.350Z,58.40
2022-11-15T22:02:07.873Z,69.90
2022-11-15T22:07:10.756Z,50.60
2022-11-15T22:12:13.714Z,71.10
2022-11-15T22:17:16.676Z,69.90
2022-11-15T22:22:19.546Z,56.70
2022-11-15T22:27:22.466Z,43.90
2022-11-15T22:32:25.344Z,44.50
2022-11-15T22:37:28.255Z,65.40
2022-11-15T22:42:32.433Z,66.50
2022-11-15T22:47:35.324Z,53.40
2022-11-15T22:52:38.155Z,59.80
2022-11-15T22:57:41.136Z,73.20
2022-11-15T23:02:44.005Z,53.00
2022-11-15T23:07:46.887Z,57.60
2022-11-15T23:13:08.467Z,80.70
2022-11-15T23:18:11.364Z,55.60
2022-11-15T23:23:14.299Z,46.40
2022-11-15T23:28:17.200Z,71.30
2022-11-15T23:33:38.700Z,58.90
2022-11-15T23:38:41.622Z,59.40
2022-11-15T23:43:44.522Z,51.20
2022-11-15T23:48:47.639Z,54.90
2022-11-15T23:53:50.737Z,39.70
2022-11-15T23:58:53.902Z,56.90
